Longworth, Texas
Current Conditions -  °F | °C
As of 9:35 PM on Saturday 24 Jan 2015 (Local Time) from KSWW Reporting Station
Clear Clear  
Wind Chill: 42°   Ceiling: Unl
Heat Index: 48°   Visibility: 10mi
Dew Point: 34°   Wind: 17mph
Humidity: 58%   Direction: 210°SSW
Pressure: 30.04"   Gusts: NA
Location:  32.6787°N, 100.492°W
Report Text: KSWW 250335Z AUTO 21015KT 10SM CLR 09/01 A3004 RMK AO2 T00900011
Loading
Personal Weather Stations






























Interactive Weather Map New forecast layout! Learn more

10-Day Weather Forecast

Advertisements
Track Severe Weather on mobile